Time;durP1;ratioP1;P1;durP2;ratioP2;P2;SDS_P1;SDS_P2;PMS_P1;PMS_P2;Temp;Humidity;BMP_temperature;BMP_pressure;BME280_temperature;BME280_humidity;BME280_pressure;Samples;Min_cycle;Max_cycle;Signal;HPM_P1;HPM_P2
2022/10/18 00:02:14;;;;;;;18.60;17.03;;;15.60;92.30;;;;;;4950805;28;20471;-76
2022/10/18 00:04:41;;;;;;;17.83;16.67;;;15.50;92.60;;;;;;4948199;28;20514;-76
2022/10/18 00:07:09;;;;;;;18.17;16.90;;;15.50;92.80;;;;;;4948283;28;20477;-76
2022/10/18 00:09:36;;;;;;;17.37;16.17;;;15.40;92.80;;;;;;4951579;28;20569;-76
2022/10/18 00:12:03;;;;;;;18.53;17.10;;;15.40;93.00;;;;;;4947546;28;20459;-76
2022/10/18 00:14:30;;;;;;;18.13;16.77;;;15.40;92.80;;;;;;4951650;28;20488;-76
2022/10/18 00:16:57;;;;;;;17.40;16.07;;;15.40;93.00;;;;;;4947960;28;20455;-76
2022/10/18 00:19:24;;;;;;;18.10;16.37;;;15.40;93.00;;;;;;4949467;28;20930;-76
2022/10/18 00:21:51;;;;;;;17.17;15.80;;;15.40;92.80;;;;;;4949027;28;20470;-76
2022/10/18 00:24:19;;;;;;;17.73;16.00;;;15.50;92.50;;;;;;4949213;28;20606;-76
2022/10/18 00:26:46;;;;;;;17.33;15.63;;;15.40;92.60;;;;;;4949014;29;20463;-76
2022/10/18 00:29:16;;;;;;;17.63;16.33;;;15.40;92.60;;;;;;4949438;28;20490;-76
2022/10/18 00:31:43;;;;;;;17.67;16.50;;;15.40;92.60;;;;;;4948978;28;20474;-76
2022/10/18 00:34:12;;;;;;;17.20;15.80;;;15.50;92.40;;;;;;4949918;28;20490;-76
2022/10/18 00:36:40;;;;;;;17.13;15.53;;;15.40;92.50;;;;;;4949825;28;20559;-76
2022/10/18 00:39:08;;;;;;;18.27;16.37;;;15.40;92.60;;;;;;4950572;28;21016;-76
2022/10/18 00:41:37;;;;;;;16.83;15.53;;;15.40;92.70;;;;;;4948711;28;20466;-76
2022/10/18 00:44:07;;;;;;;17.60;16.10;;;15.40;92.30;;;;;;4950259;28;20483;-76
2022/10/18 00:46:36;;;;;;;19.67;16.27;;;15.40;92.30;;;;;;4948810;28;20553;-76
2022/10/18 00:49:05;;;;;;;17.27;15.87;;;15.50;92.30;;;;;;4948533;28;20484;-76
2022/10/18 00:51:38;;;;;;;16.67;15.20;;;15.50;92.30;;;;;;4948352;28;20481;-76
2022/10/18 00:54:05;;;;;;;16.20;15.10;;;15.50;92.40;;;;;;4949818;29;20487;-76
2022/10/18 00:56:33;;;;;;;16.80;15.30;;;15.50;92.30;;;;;;4949958;28;20471;-76
2022/10/18 00:59:02;;;;;;;17.60;16.03;;;15.50;92.20;;;;;;4949214;28;20566;-76
2022/10/18 01:01:29;;;;;;;20.33;16.17;;;15.60;91.90;;;;;;4943961;28;20551;-76
2022/10/18 01:03:56;;;;;;;16.60;15.50;;;15.60;91.60;;;;;;4951020;28;20486;-76
2022/10/18 01:06:24;;;;;;;18.07;16.60;;;15.70;91.50;;;;;;4949739;28;20467;-76
2022/10/18 01:09:05;;;;;;;17.50;16.30;;;15.70;91.30;;;;;;4948073;28;20479;-76
2022/10/18 01:11:55;;;;;;;17.17;15.97;;;15.70;91.20;;;;;;4949808;28;20834;-76
2022/10/18 01:14:36;;;;;;;17.03;15.90;;;15.70;91.30;;;;;;4945956;28;20565;-76
2022/10/18 01:17:12;;;;;;;17.80;16.00;;;15.70;91.30;;;;;;4950183;28;20521;-76
2022/10/18 01:20:23;;;;;;;16.60;15.30;;;15.70;91.30;;;;;;4948165;28;20465;-76
2022/10/18 01:22:56;;;;;;;16.10;14.63;;;15.70;91.30;;;;;;4947512;28;21266;-76
2022/10/18 01:25:42;;;;;;;16.37;14.93;;;15.70;91.10;;;;;;4947756;28;20475;-76
2022/10/18 01:28:20;;;;;;;16.70;15.70;;;15.70;91.00;;;;;;4950430;28;20828;-76
2022/10/18 01:30:57;;;;;;;17.10;15.23;;;15.70;90.90;;;;;;4946535;28;20465;-76
2022/10/18 01:33:30;;;;;;;17.60;16.10;;;15.70;90.80;;;;;;4948704;29;20467;-76
2022/10/18 01:36:02;;;;;;;17.00;15.77;;;15.70;90.60;;;;;;4949355;28;20470;-76
2022/10/18 01:38:32;;;;;;;17.27;15.83;;;15.80;90.50;;;;;;4949385;28;20470;-76
2022/10/18 01:41:01;;;;;;;16.90;15.47;;;15.80;90.40;;;;;;4943797;28;20529;-76
2022/10/18 01:43:29;;;;;;;15.97;14.87;;;15.90;90.00;;;;;;4948277;29;20495;-76
2022/10/18 01:45:59;;;;;;;17.37;15.90;;;15.90;89.70;;;;;;4951916;28;20588;-76
2022/10/18 01:48:27;;;;;;;17.80;16.20;;;16.00;89.50;;;;;;4950879;28;20491;-76
2022/10/18 01:50:54;;;;;;;16.27;15.30;;;16.00;89.30;;;;;;4944209;28;20961;-76
2022/10/18 01:53:27;;;;;;;17.47;16.40;;;16.10;89.10;;;;;;4947233;29;20452;-76
2022/10/18 01:56:15;;;;;;;17.30;15.70;;;16.00;89.10;;;;;;4945160;28;21227;-76
2022/10/18 01:58:48;;;;;;;18.03;16.20;;;16.00;89.00;;;;;;4947064;28;20466;-76
2022/10/18 02:01:23;;;;;;;18.37;16.93;;;16.00;88.90;;;;;;4946418;28;20494;-76
2022/10/18 02:03:56;;;;;;;17.00;15.87;;;16.10;88.80;;;;;;4949810;28;20481;-76
2022/10/18 02:06:29;;;;;;;17.70;16.23;;;16.10;88.80;;;;;;4947508;28;20485;-76
2022/10/18 02:09:03;;;;;;;18.50;17.60;;;16.10;88.80;;;;;;4947790;28;20834;-77
2022/10/18 02:11:31;;;;;;;18.87;17.20;;;16.00;88.50;;;;;;4933704;28;20460;-77
2022/10/18 02:14:03;;;;;;;20.30;18.83;;;16.10;88.50;;;;;;4947874;28;20490;-77
2022/10/18 02:16:38;;;;;;;18.07;16.47;;;16.20;88.10;;;;;;4948890;28;20469;-76
2022/10/18 02:19:10;;;;;;;18.73;16.80;;;16.20;87.90;;;;;;4948193;28;20459;-77
2022/10/18 02:21:39;;;;;;;17.90;16.40;;;16.20;88.00;;;;;;4942411;28;20496;-76
2022/10/18 02:24:08;;;;;;;28.10;26.50;;;16.10;88.10;;;;;;4949832;28;20481;-76
2022/10/18 02:26:35;;;;;;;27.80;26.20;;;16.20;88.20;;;;;;4949159;28;20514;-76
2022/10/18 02:29:02;;;;;;;18.83;17.63;;;16.10;88.30;;;;;;4949054;28;21013;-77
2022/10/18 02:31:36;;;;;;;18.03;16.83;;;16.20;88.20;;;;;;4950371;28;21043;-76
2022/10/18 02:34:09;;;;;;;18.20;16.87;;;16.20;88.10;;;;;;4947193;28;20570;-76
2022/10/18 02:36:43;;;;;;;20.00;18.70;;;16.20;87.90;;;;;;4950912;28;20547;-76
2022/10/18 02:39:14;;;;;;;20.80;19.23;;;16.20;87.80;;;;;;4951095;28;20458;-76
2022/10/18 02:41:42;;;;;;;18.70;17.53;;;16.30;87.60;;;;;;4947236;28;20471;-76
2022/10/18 02:44:09;;;;;;;19.33;18.13;;;16.30;87.60;;;;;;4947522;28;20515;-76
2022/10/18 02:46:39;;;;;;;21.47;20.00;;;16.30;87.50;;;;;;4948356;28;20459;-76
2022/10/18 02:49:06;;;;;;;20.50;19.20;;;16.30;87.60;;;;;;4944762;28;20480;-76
2022/10/18 02:51:33;;;;;;;18.53;17.23;;;16.30;87.50;;;;;;4947169;28;20466;-76
2022/10/18 02:54:00;;;;;;;23.43;21.37;;;16.30;87.50;;;;;;4950880;28;20570;-76
2022/10/18 02:56:27;;;;;;;20.07;18.73;;;16.30;87.50;;;;;;4948356;28;20468;-76
2022/10/18 02:58:54;;;;;;;24.97;23.27;;;16.40;87.10;;;;;;4948502;28;20837;-76
2022/10/18 03:01:20;;;;;;;21.53;20.13;;;16.30;87.40;;;;;;4946004;28;20467;-76
2022/10/18 03:03:49;;;;;;;20.13;18.73;;;16.30;87.40;;;;;;4945945;28;20901;-76
2022/10/18 03:06:16;;;;;;;21.73;20.43;;;16.30;87.20;;;;;;4943659;28;20505;-76
2022/10/18 03:08:43;;;;;;;20.47;19.03;;;16.30;87.30;;;;;;4947796;28;20554;-76
2022/10/18 03:11:10;;;;;;;35.37;33.63;;;16.30;87.30;;;;;;4943791;28;20487;-76
2022/10/18 03:13:37;;;;;;;42.20;40.10;;;16.40;87.20;;;;;;4937043;28;20468;-76
2022/10/18 03:16:04;;;;;;;26.13;23.90;;;16.40;87.10;;;;;;4947059;28;20476;-76
2022/10/18 03:18:31;;;;;;;32.07;30.33;;;16.30;87.20;;;;;;4952238;28;20463;-76
2022/10/18 03:21:03;;;;;;;21.87;20.20;;;16.40;87.10;;;;;;4953186;28;20559;-76
2022/10/18 03:23:30;;;;;;;31.33;29.03;;;16.40;87.20;;;;;;4946860;29;20550;-76
2022/10/18 03:25:57;;;;;;;20.73;19.30;;;16.30;87.40;;;;;;4941965;28;20991;-76
2022/10/18 03:28:24;;;;;;;19.03;17.93;;;16.30;87.70;;;;;;4944327;28;20478;-76
2022/10/18 03:30:50;;;;;;;27.90;25.57;;;16.30;87.60;;;;;;4951949;28;20588;-76
2022/10/18 03:33:17;;;;;;;22.17;20.03;;;16.40;87.30;;;;;;4950409;28;20567;-76
2022/10/18 03:35:44;;;;;;;20.67;18.80;;;16.40;87.30;;;;;;4950823;28;20510;-76
2022/10/18 03:38:13;;;;;;;30.30;28.20;;;16.40;87.10;;;;;;4950430;28;20491;-76
2022/10/18 03:40:40;;;;;;;22.57;21.03;;;16.40;87.10;;;;;;4951247;28;20463;-76
2022/10/18 03:43:06;;;;;;;33.63;31.57;;;16.50;86.70;;;;;;4950748;28;20473;-77
2022/10/18 03:45:33;;;;;;;31.17;29.43;;;16.50;86.50;;;;;;4955553;28;21001;-76
2022/10/18 03:48:00;;;;;;;20.43;19.03;;;16.50;86.60;;;;;;4951491;28;20471;-74
2022/10/18 03:50:27;;;;;;;21.70;19.80;;;16.50;86.70;;;;;;4943399;28;20563;-75
2022/10/18 03:52:54;;;;;;;19.70;18.20;;;16.40;86.70;;;;;;4953265;28;20514;-76
2022/10/18 03:55:22;;;;;;;22.70;21.30;;;16.40;87.00;;;;;;4951647;28;20483;-76
2022/10/18 03:57:50;;;;;;;36.97;34.97;;;16.30;87.10;;;;;;4950136;28;20463;-76
2022/10/18 04:00:17;;;;;;;19.23;18.03;;;16.30;87.10;;;;;;4949373;28;20460;-76
2022/10/18 04:02:44;;;;;;;27.63;25.50;;;16.30;87.20;;;;;;4945080;28;20558;-76
2022/10/18 04:05:11;;;;;;;27.17;25.07;;;16.30;87.40;;;;;;4950949;28;21231;-76
2022/10/18 04:07:38;;;;;;;20.87;19.10;;;16.30;87.40;;;;;;4942555;28;20546;-76
2022/10/18 04:10:06;;;;;;;19.60;18.40;;;16.20;87.70;;;;;;4947113;28;20865;-76
2022/10/18 04:12:34;;;;;;;38.27;36.07;;;16.30;87.40;;;;;;4948885;28;20456;-76
2022/10/18 04:15:01;;;;;;;25.43;23.87;;;16.20;87.50;;;;;;4951131;28;20483;-76
2022/10/18 04:17:28;;;;;;;39.57;37.70;;;16.20;87.50;;;;;;4950078;28;20965;-76
2022/10/18 04:19:55;;;;;;;39.10;37.13;;;16.20;87.50;;;;;;4950295;28;20478;-76
2022/10/18 04:22:22;;;;;;;21.07;19.10;;;16.10;87.80;;;;;;4948134;28;20992;-76
2022/10/18 04:24:49;;;;;;;23.83;22.07;;;16.10;87.90;;;;;;4949231;28;20489;-76
2022/10/18 04:27:16;;;;;;;20.70;19.47;;;16.10;87.90;;;;;;4947177;28;20468;-76
2022/10/18 04:29:45;;;;;;;36.10;34.27;;;16.10;88.00;;;;;;4947796;28;20487;-76
2022/10/18 04:32:11;;;;;;;33.70;31.50;;;16.00;88.30;;;;;;4952473;28;20960;-76
2022/10/18 04:34:38;;;;;;;20.35;19.05;;;16.00;88.30;;;;;;4954161;28;20973;-75
2022/10/18 04:37:06;;;;;;;18.67;17.50;;;16.10;88.30;;;;;;4950056;28;20460;-76
2022/10/18 04:39:33;;;;;;;35.50;33.20;;;16.10;88.10;;;;;;4949727;28;20464;-76
2022/10/18 04:41:59;;;;;;;20.07;18.77;;;16.10;88.00;;;;;;4950204;28;20467;-75
2022/10/18 04:44:26;;;;;;;20.53;18.93;;;16.00;88.30;;;;;;4951300;28;20494;-78
2022/10/18 04:46:54;;;;;;;22.37;21.10;;;16.00;88.40;;;;;;4947693;28;20478;-76
2022/10/18 04:49:21;;;;;;;23.23;21.27;;;16.00;88.40;;;;;;4943574;29;20485;-80
2022/10/18 04:51:48;;;;;;;31.02;29.38;;;16.00;88.50;;;;;;4945806;28;20891;-76
2022/10/18 04:54:15;;;;;;;20.10;17.87;;;16.10;88.30;;;;;;4947376;28;20681;-77
2022/10/18 04:56:42;;;;;;;20.73;19.23;;;16.00;88.30;;;;;;4949107;28;20459;-76
2022/10/18 04:59:09;;;;;;;34.23;32.33;;;16.00;88.30;;;;;;4949428;28;20455;-77
2022/10/18 05:01:36;;;;;;;31.17;29.67;;;16.10;88.10;;;;;;4946886;28;20463;-76
2022/10/18 05:04:04;;;;;;;25.97;24.00;;;16.20;87.50;;;;;;4951854;28;20479;-77
2022/10/18 05:06:31;;;;;;;19.47;18.10;;;16.40;87.00;;;;;;4949409;28;20842;-77
2022/10/18 05:08:58;;;;;;;19.33;17.97;;;16.50;86.60;;;;;;4951502;28;20485;-77
2022/10/18 05:11:25;;;;;;;25.35;24.05;;;16.40;86.60;;;;;;4951373;28;20505;-77
2022/10/18 05:13:52;;;;;;;18.73;17.63;;;16.50;86.60;;;;;;4948560;28;20574;-77
2022/10/18 05:16:19;;;;;;;17.97;16.97;;;16.50;86.20;;;;;;4950177;28;20562;-73
2022/10/18 05:18:46;;;;;;;23.57;22.03;;;16.60;86.00;;;;;;4951452;29;20905;-73
2022/10/18 05:21:17;;;;;;;22.77;21.47;;;16.60;85.70;;;;;;4947047;28;20844;-74
2022/10/18 05:23:44;;;;;;;27.97;26.37;;;16.80;84.90;;;;;;4949457;28;20467;-76
2022/10/18 05:26:11;;;;;;;28.33;25.90;;;16.90;84.60;;;;;;4948706;28;20627;-77
2022/10/18 05:28:38;;;;;;;20.60;19.47;;;16.90;84.20;;;;;;4948928;28;20978;-79
2022/10/18 05:31:06;;;;;;;30.30;28.90;;;17.00;84.00;;;;;;4945090;28;20484;-77
2022/10/18 05:33:34;;;;;;;33.57;31.90;;;17.00;83.80;;;;;;4946118;28;20487;-82
2022/10/18 05:36:01;;;;;;;31.73;30.07;;;17.10;83.50;;;;;;4947643;28;21263;-78
2022/10/18 05:38:30;;;;;;;22.03;20.83;;;17.10;83.30;;;;;;4950228;28;20546;-79
2022/10/18 05:40:57;;;;;;;22.37;20.70;;;17.10;83.40;;;;;;4962402;28;20451;-78
2022/10/18 05:43:27;;;;;;;22.87;21.70;;;17.00;83.90;;;;;;4969077;28;20494;-77
2022/10/18 05:45:54;;;;;;;35.67;34.00;;;17.00;84.30;;;;;;4965893;28;20532;-77
2022/10/18 05:48:21;;;;;;;33.63;31.40;;;16.90;84.50;;;;;;4950291;28;20468;-78
2022/10/18 05:50:48;;;;;;;23.87;22.37;;;16.90;84.80;;;;;;4947256;28;20559;-77
2022/10/18 05:53:15;;;;;;;41.40;39.30;;;16.90;84.90;;;;;;4949916;28;20554;-77
2022/10/18 05:55:43;;;;;;;20.93;19.70;;;16.80;85.10;;;;;;4950196;28;20578;-77
2022/10/18 05:58:10;;;;;;;35.97;33.90;;;16.90;85.00;;;;;;4949285;28;20550;-77
2022/10/18 06:00:37;;;;;;;40.13;38.00;;;16.90;85.00;;;;;;4950311;28;20467;-79
2022/10/18 06:03:07;;;;;;;27.53;25.63;;;16.80;85.10;;;;;;4950472;28;20961;-78
2022/10/18 06:05:34;;;;;;;32.63;31.00;;;16.80;85.20;;;;;;4950632;28;20471;-79
2022/10/18 06:08:01;;;;;;;22.90;21.60;;;16.90;85.20;;;;;;4950115;28;20466;-80
2022/10/18 06:10:28;;;;;;;22.33;20.53;;;16.90;85.30;;;;;;4951118;28;20487;-79
2022/10/18 06:12:56;;;;;;;37.83;35.77;;;16.90;85.40;;;;;;4948408;28;20478;-79
2022/10/18 06:15:23;;;;;;;34.17;32.23;;;16.90;85.30;;;;;;4952011;28;20479;-80
2022/10/18 06:17:50;;;;;;;21.50;20.30;;;16.90;85.40;;;;;;4944114;28;20579;-76
2022/10/18 06:20:18;;;;;;;43.47;41.40;;;17.00;85.20;;;;;;4943032;29;20463;-76
2022/10/18 06:22:45;;;;;;;28.13;26.15;;;17.00;85.10;;;;;;4944743;28;20924;-78
2022/10/18 06:25:12;;;;;;;30.80;28.87;;;17.20;84.60;;;;;;4950178;29;20215;-78
2022/10/18 06:27:40;;;;;;;22.30;20.80;;;17.30;84.00;;;;;;4947713;28;20460;-78
2022/10/18 06:30:10;;;;;;;24.23;21.87;;;17.50;83.80;;;;;;4949025;28;20451;-78
2022/10/18 06:32:37;;;;;;;23.57;22.07;;;17.50;83.50;;;;;;4948126;28;21016;-78
2022/10/18 06:35:04;;;;;;;26.33;24.67;;;17.60;83.10;;;;;;4949500;28;20489;-78
2022/10/18 06:37:31;;;;;;;33.63;32.03;;;17.80;82.60;;;;;;4949047;28;20467;-78
2022/10/18 06:39:58;;;;;;;34.20;32.50;;;17.90;82.00;;;;;;4947483;28;20467;-78
2022/10/18 06:42:25;;;;;;;28.50;26.83;;;18.00;81.40;;;;;;4948560;28;20470;-78
2022/10/18 06:44:52;;;;;;;28.20;26.60;;;18.10;80.90;;;;;;4950225;28;20514;-78
2022/10/18 06:47:20;;;;;;;28.33;26.50;;;18.20;81.00;;;;;;4948804;28;20466;-77
2022/10/18 06:49:47;;;;;;;30.27;28.00;;;18.30;80.20;;;;;;4946655;29;20546;-76
2022/10/18 06:52:17;;;;;;;23.30;21.80;;;18.40;79.70;;;;;;4947438;28;20487;-77
2022/10/18 06:54:44;;;;;;;25.10;23.80;;;18.50;79.70;;;;;;4947467;28;20493;-77
2022/10/18 06:57:11;;;;;;;25.93;24.20;;;18.60;79.30;;;;;;4949437;28;20895;-77
2022/10/18 06:59:38;;;;;;;29.13;27.63;;;18.70;78.80;;;;;;4946635;28;20837;-77
2022/10/18 07:02:05;;;;;;;26.13;24.67;;;18.80;78.40;;;;;;4945392;28;20514;-77
2022/10/18 07:04:33;;;;;;;25.80;24.43;;;18.90;78.00;;;;;;4949276;29;20487;-77
2022/10/18 07:07:00;;;;;;;26.70;24.90;;;19.00;77.90;;;;;;4952005;28;20890;-77
2022/10/18 07:09:27;;;;;;;32.00;30.43;;;19.10;77.60;;;;;;4943341;28;21127;-77
2022/10/18 07:11:54;;;;;;;27.83;26.53;;;19.10;77.40;;;;;;4952106;28;21044;-77
2022/10/18 07:14:21;;;;;;;36.37;34.43;;;19.20;77.30;;;;;;4950883;29;20485;-77
2022/10/18 07:16:50;;;;;;;27.67;26.17;;;19.20;77.10;;;;;;4951764;28;20468;-77
2022/10/18 07:19:17;;;;;;;43.13;41.07;;;19.30;77.00;;;;;;4950799;28;20471;-77
2022/10/18 07:21:45;;;;;;;27.00;25.77;;;19.30;76.90;;;;;;4949645;28;20452;-77
2022/10/18 07:24:12;;;;;;;27.93;26.70;;;19.40;76.80;;;;;;4951255;28;20582;-79
2022/10/18 07:26:41;;;;;;;35.30;33.47;;;19.40;76.60;;;;;;4958889;28;20463;-80
2022/10/18 07:29:10;;;;;;;42.73;40.50;;;19.40;76.70;;;;;;4960314;29;20806;-78
2022/10/18 07:31:37;;;;;;;43.77;41.63;;;19.50;76.20;;;;;;4960248;28;20603;-78
2022/10/18 07:34:05;;;;;;;37.13;35.33;;;19.60;76.20;;;;;;4958834;28;20481;-79
2022/10/18 07:36:32;;;;;;;30.70;29.30;;;19.70;76.00;;;;;;4959901;28;20463;-81
2022/10/18 07:39:00;;;;;;;28.57;27.20;;;19.80;75.90;;;;;;4952827;28;20889;-77
2022/10/18 07:41:28;;;;;;;45.03;42.93;;;19.80;75.70;;;;;;4950217;28;20451;-79
2022/10/18 07:43:55;;;;;;;33.80;32.00;;;20.00;75.20;;;;;;4951224;29;20475;-77
2022/10/18 07:46:23;;;;;;;34.13;32.23;;;20.10;74.80;;;;;;4952633;28;20464;-77
2022/10/18 07:48:52;;;;;;;30.40;28.80;;;20.10;74.70;;;;;;4954696;28;20555;-77
2022/10/18 07:51:22;;;;;;;36.50;34.60;;;20.10;74.60;;;;;;4952271;28;20485;-77
2022/10/18 07:53:49;;;;;;;33.97;32.10;;;20.30;74.30;;;;;;4952428;28;20493;-78
2022/10/18 07:56:21;;;;;;;34.57;32.50;;;20.40;73.90;;;;;;4952738;28;20894;-78
2022/10/18 07:58:51;;;;;;;36.70;35.00;;;20.50;73.30;;;;;;4951654;28;20459;-77
2022/10/18 08:01:19;;;;;;;33.57;31.57;;;20.60;73.20;;;;;;4947460;28;20478;-77
2022/10/18 08:03:46;;;;;;;38.77;36.97;;;20.70;72.80;;;;;;4948741;28;20919;-79
2022/10/18 08:06:16;;;;;;;41.63;39.40;;;20.80;73.00;;;;;;4947539;28;20478;-78
2022/10/18 08:08:44;;;;;;;30.37;28.67;;;20.80;72.70;;;;;;4954992;28;20463;-78
2022/10/18 08:11:13;;;;;;;42.83;40.73;;;20.90;72.50;;;;;;4957718;28;20925;-77
2022/10/18 08:13:42;;;;;;;36.60;34.80;;;21.00;72.30;;;;;;4948412;28;20981;-76
2022/10/18 08:16:12;;;;;;;31.80;30.03;;;21.10;72.30;;;;;;4952541;28;20554;-78
2022/10/18 08:18:39;;;;;;;40.00;37.90;;;21.20;72.00;;;;;;4950897;28;20987;-77
2022/10/18 08:21:10;;;;;;;38.13;36.10;;;21.30;71.90;;;;;;4948448;28;20463;-77
2022/10/18 08:23:37;;;;;;;30.50;28.90;;;21.30;72.00;;;;;;4952779;28;20478;-77
2022/10/18 08:26:06;;;;;;;41.17;39.07;;;21.30;71.70;;;;;;4951181;28;20482;-79
2022/10/18 08:28:35;;;;;;;39.67;37.70;;;21.40;71.70;;;;;;4951802;28;20456;-78
2022/10/18 08:31:04;;;;;;;40.80;38.90;;;21.40;71.60;;;;;;4951286;28;20519;-78
2022/10/18 08:33:31;;;;;;;45.57;43.33;;;21.50;71.40;;;;;;4953292;28;20455;-78
2022/10/18 08:36:00;;;;;;;38.63;36.73;;;21.50;71.10;;;;;;4947359;28;20806;-78
2022/10/18 08:38:31;;;;;;;43.53;41.10;;;21.60;71.10;;;;;;4952022;29;20523;-77
2022/10/18 08:41:00;;;;;;;40.20;38.17;;;21.60;70.80;;;;;;4950525;28;20456;-78
2022/10/18 08:43:33;;;;;;;33.17;31.63;;;21.60;70.90;;;;;;4945335;28;20459;-77
2022/10/18 08:46:00;;;;;;;39.80;38.10;;;21.60;70.80;;;;;;4948626;29;20455;-77
2022/10/18 08:48:35;;;;;;;31.50;29.90;;;21.60;70.70;;;;;;4944912;28;20470;-78
2022/10/18 08:51:04;;;;;;;43.70;41.53;;;21.80;70.10;;;;;;4933680;29;20487;-77
2022/10/18 08:53:37;;;;;;;44.60;42.40;;;21.70;70.40;;;;;;4952828;28;20499;-76
2022/10/18 08:56:13;;;;;;;32.83;31.30;;;21.80;70.20;;;;;;4937052;29;20468;-78
2022/10/18 08:58:41;;;;;;;33.13;31.23;;;21.90;70.40;;;;;;4945987;29;20470;-77
2022/10/18 09:01:21;;;;;;;31.40;29.90;;;22.00;69.80;;;;;;4953390;28;20558;-77
2022/10/18 09:04:16;;;;;;;37.87;36.07;;;22.20;69.60;;;;;;4956341;29;20539;-77
2022/10/18 09:06:53;;;;;;;33.23;31.40;;;22.30;69.40;;;;;;4962850;28;20483;-78
2022/10/18 09:09:28;;;;;;;34.80;33.07;;;22.30;69.00;;;;;;4965522;28;20521;-79
2022/10/18 09:12:05;;;;;;;34.33;32.77;;;22.40;69.10;;;;;;4952602;28;20485;-77
2022/10/18 09:15:00;;;;;;;36.00;34.30;;;22.40;68.40;;;;;;4950145;29;20558;-77
2022/10/18 09:17:35;;;;;;;41.47;39.57;;;22.50;68.70;;;;;;4952313;28;20495;-78
2022/10/18 09:20:15;;;;;;;33.57;32.17;;;22.60;68.20;;;;;;4953281;29;20826;-79
2022/10/18 09:22:52;;;;;;;40.63;38.63;;;22.60;68.20;;;;;;4950423;28;20459;-78
2022/10/18 09:25:22;;;;;;;38.77;36.77;;;22.70;67.60;;;;;;4951654;28;20487;-77
2022/10/18 09:28:03;;;;;;;42.07;39.67;;;22.60;67.80;;;;;;4949464;28;20570;-77
2022/10/18 09:30:41;;;;;;;31.73;30.13;;;22.80;67.60;;;;;;4948260;29;21102;-77
2022/10/18 09:33:42;;;;;;;36.13;34.30;;;22.90;67.50;;;;;;4949450;28;20486;-77
2022/10/18 09:36:16;;;;;;;33.33;31.37;;;23.10;66.90;;;;;;4948293;28;20473;-77
2022/10/18 09:38:47;;;;;;;33.23;31.40;;;23.30;66.50;;;;;;4950270;28;20893;-77
2022/10/18 09:41:19;;;;;;;31.30;29.70;;;23.50;66.40;;;;;;4950682;28;20452;-77
2022/10/18 09:43:52;;;;;;;37.47;35.20;;;23.60;66.10;;;;;;4948681;28;20462;-77
2022/10/18 09:46:22;;;;;;;45.67;43.30;;;23.60;65.30;;;;;;4948755;28;20466;-77
2022/10/18 09:48:53;;;;;;;38.50;36.40;;;23.50;65.40;;;;;;4941766;28;20498;-77
2022/10/18 09:51:25;;;;;;;31.57;29.87;;;23.10;67.70;;;;;;4952668;28;20487;-77
2022/10/18 09:54:11;;;;;;;32.07;30.57;;;22.50;69.20;;;;;;4945876;28;20546;-77
2022/10/18 09:56:41;;;;;;;32.97;30.77;;;22.30;70.00;;;;;;4950326;28;20543;-77
2022/10/18 09:59:34;;;;;;;41.33;39.10;;;22.20;70.60;;;;;;4945547;28;20562;-77
2022/10/18 10:02:01;;;;;;;32.07;30.27;;;21.80;71.20;;;;;;4947091;28;21014;-77
2022/10/18 10:04:28;;;;;;;31.50;29.57;;;21.60;71.90;;;;;;4949353;28;20904;-77
2022/10/18 10:07:00;;;;;;;31.30;29.40;;;21.40;72.70;;;;;;4949479;28;20470;-77
2022/10/18 10:09:29;;;;;;;31.97;30.07;;;21.40;72.80;;;;;;4947044;28;20563;-77
2022/10/18 10:11:57;;;;;;;30.67;28.97;;;21.60;72.30;;;;;;4948763;28;20486;-77
2022/10/18 10:14:26;;;;;;;32.50;30.03;;;21.70;72.00;;;;;;4949965;29;20485;-77
2022/10/18 10:16:55;;;;;;;34.47;32.47;;;21.70;72.10;;;;;;4945917;28;20889;-77
2022/10/18 10:19:28;;;;;;;38.70;36.20;;;21.80;71.90;;;;;;4936772;29;20542;-77
2022/10/18 10:22:01;;;;;;;33.10;31.40;;;21.80;71.90;;;;;;4949541;29;20542;-78
2022/10/18 10:24:46;;;;;;;36.83;35.03;;;21.80;71.70;;;;;;4948300;28;20471;-78
2022/10/18 10:27:20;;;;;;;32.83;31.03;;;21.70;72.00;;;;;;4947981;28;20500;-77
2022/10/18 10:29:55;;;;;;;40.77;37.63;;;21.70;72.20;;;;;;4948246;29;20462;-78
2022/10/18 10:32:25;;;;;;;34.47;32.37;;;21.80;71.90;;;;;;4949675;28;20570;-77
2022/10/18 10:34:53;;;;;;;33.37;31.13;;;22.00;71.30;;;;;;4950938;28;20574;-77
2022/10/18 10:37:33;;;;;;;33.30;31.70;;;22.10;70.60;;;;;;4951655;29;20495;-77
2022/10/18 10:40:19;;;;;;;32.07;29.73;;;22.30;70.20;;;;;;4948247;28;21035;-77
2022/10/18 10:42:57;;;;;;;36.00;33.90;;;22.30;70.30;;;;;;4948685;28;20466;-77
2022/10/18 10:45:26;;;;;;;32.07;30.27;;;22.40;69.70;;;;;;4944512;28;21023;-77
2022/10/18 10:47:54;;;;;;;39.47;37.27;;;22.40;69.40;;;;;;4947023;29;20558;-77
2022/10/18 10:50:26;;;;;;;33.93;32.10;;;22.20;70.10;;;;;;4947209;28;20471;-76
2022/10/18 10:52:55;;;;;;;33.63;31.53;;;22.40;69.70;;;;;;4944476;28;20570;-77
2022/10/18 10:55:27;;;;;;;32.17;30.30;;;22.50;69.30;;;;;;4948219;28;20488;-76
2022/10/18 10:57:55;;;;;;;32.13;30.23;;;22.30;69.80;;;;;;4946883;28;20460;-77
2022/10/18 11:00:41;;;;;;;34.63;32.73;;;22.20;69.70;;;;;;4947529;29;20482;-77
2022/10/18 11:03:14;;;;;;;45.80;43.30;;;22.20;69.70;;;;;;4949025;28;20451;-77
2022/10/18 11:05:46;;;;;;;32.63;31.07;;;22.10;70.20;;;;;;4942549;29;20567;-77
2022/10/18 11:08:18;;;;;;;39.07;36.57;;;22.10;70.70;;;;;;4944380;28;20562;-77
2022/10/18 11:10:56;;;;;;;33.77;31.77;;;22.10;71.00;;;;;;4939011;29;22263;-77
2022/10/18 11:13:35;;;;;;;41.57;39.50;;;22.20;70.60;;;;;;4946029;28;20565;-77
2022/10/18 11:16:07;;;;;;;43.93;41.30;;;22.30;70.30;;;;;;4949877;29;20857;-79
2022/10/18 11:18:37;;;;;;;34.87;32.97;;;22.60;69.70;;;;;;4943380;28;20493;-75
2022/10/18 11:21:09;;;;;;;32.93;31.03;;;22.70;69.00;;;;;;4932656;28;20980;-75
2022/10/18 11:23:39;;;;;;;41.00;38.80;;;22.90;68.40;;;;;;4942837;29;20452;-76
2022/10/18 11:26:26;;;;;;;32.97;31.20;;;23.00;68.20;;;;;;4947950;28;20555;-76
2022/10/18 11:29:15;;;;;;;33.80;31.80;;;23.20;68.10;;;;;;4943835;28;20459;-75
2022/10/18 11:31:50;;;;;;;39.87;37.23;;;23.30;67.90;;;;;;4946372;28;20459;-73
2022/10/18 12:05:27;;;;;;;36.57;34.53;;;23.00;69.00;;;;;;5128323;27;20644;-78
2022/10/18 12:08:01;;;;;;;35.87;34.07;;;23.30;68.60;;;;;;5107854;28;20457;-77
2022/10/18 12:10:31;;;;;;;37.33;35.20;;;23.60;67.70;;;;;;5111790;27;20572;-76
2022/10/18 12:13:02;;;;;;;33.77;31.97;;;24.00;66.90;;;;;;5113800;28;21060;-79
2022/10/18 12:15:31;;;;;;;41.93;39.03;;;24.20;66.60;;;;;;5117322;27;20903;-77
2022/10/18 12:18:01;;;;;;;35.63;33.83;;;24.20;66.00;;;;;;5121899;28;20456;-77
2022/10/18 12:20:33;;;;;;;40.53;37.50;;;24.40;65.90;;;;;;5119297;27;20827;-78
2022/10/18 12:23:03;;;;;;;36.30;34.33;;;24.40;65.40;;;;;;5117752;28;20467;-75
2022/10/18 12:25:33;;;;;;;33.10;31.30;;;24.40;64.90;;;;;;5107335;28;20470;-80
2022/10/18 12:28:06;;;;;;;34.57;32.40;;;24.30;65.40;;;;;;5089322;28;20456;-77
2022/10/18 12:30:42;;;;;;;37.03;35.03;;;24.40;64.90;;;;;;5104563;28;21027;-80
2022/10/18 12:33:12;;;;;;;37.10;35.23;;;24.50;63.40;;;;;;5103407;28;21117;-78
2022/10/18 12:35:54;;;;;;;38.77;36.73;;;24.00;63.80;;;;;;5103530;27;20472;-76
2022/10/18 12:38:26;;;;;;;31.97;30.37;;;23.60;65.40;;;;;;5105605;28;20474;-80
2022/10/18 12:40:54;;;;;;;36.07;34.27;;;23.40;65.90;;;;;;5102875;28;20526;-77
2022/10/18 12:43:24;;;;;;;45.27;42.90;;;23.20;66.00;;;;;;5101699;28;20459;-77
2022/10/18 12:45:54;;;;;;;38.80;36.90;;;23.30;66.50;;;;;;5102732;28;20853;-77
2022/10/18 12:48:37;;;;;;;38.27;36.47;;;23.10;67.70;;;;;;5102026;28;20456;-77
2022/10/18 12:51:13;;;;;;;33.20;31.50;;;22.70;68.80;;;;;;5105884;27;20475;-77
2022/10/18 12:53:43;;;;;;;31.83;30.33;;;22.60;69.00;;;;;;5099597;27;20538;-77
2022/10/18 12:56:36;;;;;;;42.30;40.30;;;22.50;68.80;;;;;;5104904;28;20465;-77
2022/10/18 12:59:49;;;;;;;43.60;41.40;;;22.20;69.70;;;;;;5102347;28;20448;-77
2022/10/18 13:02:25;;;;;;;32.77;30.97;;;22.20;70.20;;;;;;5108122;28;20451;-77
2022/10/18 13:04:52;;;;;;;33.23;31.57;;;22.20;70.20;;;;;;5108550;28;20551;-74
2022/10/18 13:07:41;;;;;;;32.03;30.60;;;22.10;70.50;;;;;;5115248;28;20460;-76
2022/10/18 13:10:36;;;;;;;35.83;34.03;;;22.10;70.80;;;;;;5104722;27;20487;-76
2022/10/18 13:13:40;;;;;;;34.40;32.80;;;22.00;72.00;;;;;;5052925;28;20544;-76
2022/10/18 13:16:37;;;;;;;32.80;31.10;;;22.10;72.20;;;;;;5096657;28;22277;-77
2022/10/18 13:19:21;;;;;;;33.60;31.97;;;22.20;71.80;;;;;;5102746;28;20461;-76